Time;durP1;ratioP1;P1;durP2;ratioP2;P2;SDS_P1;SDS_P2;PMS_P1;PMS_P2;Temp;Humidity;BMP_temperature;BMP_pressure;BME280_temperature;BME280_humidity;BME280_pressure;Samples;Min_cycle;Max_cycle;Signal;HPM_P1;HPM_P2
2021/10/14 00:00:58;;;;;;;18.87;13.83;;;10.50;94.30;;;;;;5054894;28;20175;-86
2021/10/14 00:03:24;;;;;;;20.73;13.53;;;10.50;94.30;;;;;;5036824;28;20550;-86
2021/10/14 00:05:50;;;;;;;16.83;13.83;;;10.60;94.30;;;;;;5036804;28;20183;-86
2021/10/14 00:08:15;;;;;;;17.87;13.80;;;10.60;94.30;;;;;;5036716;28;20294;-86
2021/10/14 00:10:41;;;;;;;16.57;14.67;;;10.60;94.40;;;;;;5036717;28;20714;-87
2021/10/14 00:13:07;;;;;;;19.87;17.33;;;10.60;94.40;;;;;;5054675;28;20168;-86
2021/10/14 00:15:32;;;;;;;21.93;15.97;;;10.60;94.50;;;;;;5036553;28;20172;-87
2021/10/14 00:17:59;;;;;;;22.07;17.87;;;10.60;94.40;;;;;;5036490;28;20195;-87
2021/10/14 00:20:25;;;;;;;24.30;18.40;;;10.70;94.50;;;;;;5036599;28;20172;-86
2021/10/14 00:22:51;;;;;;;25.07;19.53;;;10.70;94.50;;;;;;5036475;28;20541;-86
2021/10/14 00:25:19;;;;;;;27.93;20.73;;;10.70;94.60;;;;;;5036380;28;20248;-87
2021/10/14 00:27:45;;;;;;;27.37;20.20;;;10.70;94.60;;;;;;5054659;28;20214;-87
2021/10/14 00:30:12;;;;;;;27.70;21.50;;;10.70;94.60;;;;;;5054469;28;20179;-87
2021/10/14 00:32:37;;;;;;;28.40;21.43;;;10.70;94.60;;;;;;5036220;28;20176;-87
2021/10/14 00:35:04;;;;;;;25.27;21.00;;;10.80;94.60;;;;;;5036075;28;20182;-87
2021/10/14 00:37:29;;;;;;;30.30;22.23;;;10.80;94.60;;;;;;5053822;28;20208;-87
2021/10/14 00:39:56;;;;;;;29.07;22.27;;;10.80;94.50;;;;;;5036150;28;20182;-87
2021/10/14 00:42:22;;;;;;;32.37;22.37;;;10.80;94.60;;;;;;5036235;28;20168;-87
2021/10/14 00:44:50;;;;;;;30.93;22.73;;;10.80;94.60;;;;;;5036030;28;20176;-87
2021/10/14 00:47:25;;;;;;;29.10;21.57;;;10.80;94.60;;;;;;5053952;28;20184;-87
2021/10/14 00:49:52;;;;;;;26.50;22.37;;;10.80;94.60;;;;;;5036034;28;20175;-86
2021/10/14 00:52:18;;;;;;;31.53;22.37;;;10.90;94.50;;;;;;5036032;28;20176;-86
2021/10/14 00:54:45;;;;;;;26.30;21.80;;;10.90;94.60;;;;;;5053750;28;20557;-87
2021/10/14 00:57:12;;;;;;;32.53;23.67;;;10.90;94.60;;;;;;5035654;28;20294;-87
2021/10/14 00:59:38;;;;;;;33.27;23.33;;;10.90;94.60;;;;;;5036045;28;20239;-87
2021/10/14 01:02:05;;;;;;;27.77;23.50;;;10.90;94.70;;;;;;5036158;28;20183;-86
2021/10/14 01:04:31;;;;;;;31.40;23.90;;;11.00;94.70;;;;;;5035781;28;20179;-86
2021/10/14 01:06:57;;;;;;;35.23;24.47;;;11.00;94.70;;;;;;5035696;28;20192;-87
2021/10/14 01:09:22;;;;;;;29.10;21.90;;;11.00;94.70;;;;;;5035619;28;20234;-87
2021/10/14 01:11:48;;;;;;;32.60;23.73;;;11.00;94.70;;;;;;5035606;28;20671;-87
2021/10/14 01:14:14;;;;;;;32.63;23.77;;;11.00;94.80;;;;;;5035693;28;20253;-87
2021/10/14 01:16:40;;;;;;;31.57;22.90;;;11.00;94.80;;;;;;5035443;28;20203;-87
2021/10/14 01:19:07;;;;;;;27.60;20.93;;;11.10;94.90;;;;;;5035608;28;20174;-87
2021/10/14 01:21:33;;;;;;;33.70;22.50;;;11.10;94.80;;;;;;5053469;28;20235;-86
2021/10/14 01:23:59;;;;;;;28.23;21.63;;;11.20;94.90;;;;;;5035429;28;20595;-87
2021/10/14 01:26:26;;;;;;;25.20;20.40;;;11.20;94.90;;;;;;5035112;28;20222;-87
2021/10/14 01:28:52;;;;;;;31.20;23.60;;;11.20;95.00;;;;;;5035652;28;20172;-87
2021/10/14 01:31:17;;;;;;;33.63;22.97;;;11.20;95.00;;;;;;5035490;28;20246;-87
2021/10/14 01:33:43;;;;;;;29.37;22.50;;;11.20;95.00;;;;;;5053312;28;20595;-87
2021/10/14 01:36:09;;;;;;;27.50;20.57;;;11.20;95.00;;;;;;5035344;28;20195;-87
2021/10/14 01:38:34;;;;;;;27.03;21.03;;;11.30;95.10;;;;;;5035234;28;20175;-87
2021/10/14 01:41:00;;;;;;;32.50;23.00;;;11.20;95.10;;;;;;5053436;28;20176;-87
2021/10/14 01:43:26;;;;;;;33.40;22.73;;;11.30;95.10;;;;;;5053240;28;20168;-87
2021/10/14 01:45:52;;;;;;;32.80;23.00;;;11.30;95.10;;;;;;5035234;28;20207;-87
2021/10/14 01:48:17;;;;;;;33.27;22.70;;;11.30;95.10;;;;;;5035647;28;20200;-87
2021/10/14 01:50:43;;;;;;;27.60;21.13;;;11.30;95.10;;;;;;5035156;28;20254;-87
2021/10/14 01:53:09;;;;;;;25.87;19.97;;;11.30;95.20;;;;;;5035166;28;20711;-88
2021/10/14 01:55:35;;;;;;;31.70;21.70;;;11.30;95.20;;;;;;5034980;28;20183;-87
2021/10/14 01:58:00;;;;;;;35.13;22.13;;;11.40;95.20;;;;;;5038481;28;20333;-87
2021/10/14 02:00:26;;;;;;;37.77;24.07;;;11.30;95.20;;;;;;5056971;28;20294;-87
2021/10/14 02:02:52;;;;;;;38.33;25.33;;;11.40;95.20;;;;;;5056942;28;20590;-87
2021/10/14 02:05:17;;;;;;;40.87;25.43;;;11.40;95.20;;;;;;5039090;28;20178;-88
2021/10/14 02:07:43;;;;;;;34.83;24.13;;;11.40;95.20;;;;;;5056764;28;20281;-87
2021/10/14 02:10:09;;;;;;;37.93;24.40;;;11.40;95.30;;;;;;5056843;28;20178;-87
2021/10/14 02:12:35;;;;;;;34.20;24.07;;;11.40;95.20;;;;;;5039032;28;20560;-87
2021/10/14 02:15:01;;;;;;;39.97;26.33;;;11.40;95.20;;;;;;5038896;28;20223;-88
2021/10/14 02:17:27;;;;;;;41.70;27.27;;;11.50;95.30;;;;;;5056481;28;20212;-88
2021/10/14 02:19:53;;;;;;;38.43;24.70;;;11.50;95.30;;;;;;5038780;28;20267;-88
2021/10/14 02:22:18;;;;;;;40.07;24.93;;;11.50;95.30;;;;;;5038906;28;20648;-88
2021/10/14 02:24:44;;;;;;;44.73;24.90;;;11.50;95.20;;;;;;5056543;28;20172;-87
2021/10/14 02:27:10;;;;;;;37.40;25.07;;;11.50;95.30;;;;;;5049730;22;20224;-92
2021/10/14 02:29:36;;;;;;;36.97;25.13;;;11.60;95.30;;;;;;5019524;28;20169;-92
2021/10/14 02:32:02;;;;;;;35.53;23.93;;;11.60;95.20;;;;;;5019062;28;20654;-92
2021/10/14 02:34:28;;;;;;;33.90;23.87;;;11.60;95.30;;;;;;5018916;28;20215;-92
2021/10/14 02:36:53;;;;;;;36.33;25.27;;;11.60;95.20;;;;;;5018680;28;20343;-92
2021/10/14 02:39:19;;;;;;;33.33;23.77;;;11.60;95.30;;;;;;5018742;28;20172;-92
2021/10/14 02:41:44;;;;;;;32.67;22.53;;;11.60;95.20;;;;;;5018631;28;20176;-92
2021/10/14 02:44:10;;;;;;;30.23;20.87;;;11.60;95.20;;;;;;5018641;28;20173;-92
2021/10/14 02:46:36;;;;;;;24.17;17.70;;;11.60;95.30;;;;;;5018406;28;20177;-92
2021/10/14 02:49:02;;;;;;;24.30;16.53;;;11.70;95.30;;;;;;5018561;28;20184;-92
2021/10/14 02:51:27;;;;;;;22.73;16.70;;;11.70;95.20;;;;;;5018461;28;20182;-92
2021/10/14 02:53:53;;;;;;;24.13;16.93;;;11.70;95.20;;;;;;5018500;28;20622;-92
2021/10/14 02:56:19;;;;;;;21.60;16.50;;;11.80;95.20;;;;;;5018471;28;20255;-92
2021/10/14 02:58:44;;;;;;;21.33;14.87;;;11.80;95.20;;;;;;5018368;28;20200;-92
2021/10/14 03:01:10;;;;;;;18.33;13.63;;;11.80;95.20;;;;;;5018382;28;20218;-92
2021/10/14 03:03:36;;;;;;;17.90;13.00;;;11.80;95.20;;;;;;5018327;28;20169;-92
2021/10/14 03:06:01;;;;;;;16.73;13.43;;;11.90;95.20;;;;;;5018262;28;20187;-92
2021/10/14 03:08:27;;;;;;;15.43;11.90;;;11.80;95.20;;;;;;5016877;28;20200;-92
2021/10/14 03:10:53;;;;;;;14.77;11.60;;;11.80;95.20;;;;;;5018198;28;20549;-92
2021/10/14 03:13:18;;;;;;;16.03;11.57;;;11.90;95.20;;;;;;5018086;28;20657;-92
2021/10/14 03:15:44;;;;;;;16.50;11.20;;;11.90;95.20;;;;;;5018215;28;20187;-92
2021/10/14 03:18:09;;;;;;;12.30;9.87;;;11.90;95.30;;;;;;5017920;28;20279;-92
2021/10/14 03:20:35;;;;;;;12.97;10.53;;;12.00;95.30;;;;;;5017951;28;20267;-92
2021/10/14 03:23:01;;;;;;;13.60;9.30;;;12.00;95.30;;;;;;5017917;28;20555;-92
2021/10/14 03:25:27;;;;;;;14.17;10.30;;;12.00;95.30;;;;;;5017851;28;20195;-92
2021/10/14 03:27:52;;;;;;;14.93;9.20;;;12.00;95.30;;;;;;5017930;28;20319;-92
2021/10/14 03:30:18;;;;;;;14.23;10.33;;;12.10;95.30;;;;;;5018051;28;20231;-92
2021/10/14 03:32:43;;;;;;;11.60;9.33;;;12.10;95.30;;;;;;5017757;28;20173;-92
2021/10/14 03:35:09;;;;;;;12.70;9.57;;;12.10;95.30;;;;;;5017689;28;20200;-92
2021/10/14 03:37:35;;;;;;;13.07;9.50;;;12.10;95.30;;;;;;5017375;28;20615;-92
2021/10/14 03:40:01;;;;;;;14.03;9.43;;;12.10;95.30;;;;;;5017558;28;20177;-91
2021/10/14 03:42:26;;;;;;;12.60;9.17;;;12.10;95.20;;;;;;5017528;28;20691;-92
2021/10/14 03:44:52;;;;;;;11.47;8.23;;;12.10;95.20;;;;;;5017449;28;20172;-92
2021/10/14 03:47:17;;;;;;;14.63;9.93;;;12.10;95.20;;;;;;5017533;28;20203;-92
2021/10/14 03:49:43;;;;;;;15.53;9.80;;;12.10;95.20;;;;;;5017482;28;20632;-92
2021/10/14 03:52:09;;;;;;;13.77;9.40;;;12.10;95.20;;;;;;5017753;28;20187;-92
2021/10/14 03:54:34;;;;;;;14.27;8.97;;;12.10;95.20;;;;;;5017384;28;20734;-92
2021/10/14 03:57:00;;;;;;;13.30;9.00;;;12.10;95.20;;;;;;5017274;28;20693;-92
2021/10/14 03:59:26;;;;;;;11.73;8.63;;;12.10;95.20;;;;;;5017255;28;20549;-92
2021/10/14 04:01:51;;;;;;;11.23;7.97;;;12.10;95.20;;;;;;5017156;28;20175;-92
2021/10/14 04:04:17;;;;;;;9.50;7.30;;;12.20;95.20;;;;;;5017070;28;20552;-92
2021/10/14 04:06:42;;;;;;;10.40;7.27;;;12.20;95.20;;;;;;5017256;28;20177;-92
2021/10/14 04:09:08;;;;;;;9.37;7.13;;;12.20;95.20;;;;;;5017256;28;20271;-92
2021/10/14 04:11:34;;;;;;;8.53;6.70;;;12.20;95.20;;;;;;5017074;28;20188;-92
2021/10/14 04:14:00;;;;;;;8.53;6.47;;;12.30;95.20;;;;;;5016931;28;20188;-92
2021/10/14 04:16:25;;;;;;;9.40;7.03;;;12.20;95.20;;;;;;5016880;28;20200;-92
2021/10/14 04:18:51;;;;;;;5.97;5.37;;;12.30;95.20;;;;;;5016530;28;20668;-92
2021/10/14 04:21:17;;;;;;;6.23;4.70;;;12.20;95.20;;;;;;5016749;28;20176;-92
2021/10/14 04:23:44;;;;;;;5.97;4.80;;;12.30;95.30;;;;;;5016915;28;20184;-91
2021/10/14 04:26:13;;;;;;;5.43;4.67;;;12.30;95.30;;;;;;5017160;28;20180;-92
2021/10/14 04:28:39;;;;;;;6.13;5.10;;;12.30;95.30;;;;;;5016631;28;20696;-92
2021/10/14 04:31:06;;;;;;;8.03;5.90;;;12.30;95.30;;;;;;5016684;28;20263;-92
2021/10/14 04:33:31;;;;;;;8.20;6.13;;;12.30;95.30;;;;;;5016534;28;20180;-92
2021/10/14 04:36:01;;;;;;;8.70;6.27;;;12.30;95.30;;;;;;5016780;28;20201;-92
2021/10/14 04:38:28;;;;;;;10.83;7.67;;;12.30;95.40;;;;;;5016532;28;20200;-92
2021/10/14 04:40:53;;;;;;;11.37;7.67;;;12.30;95.30;;;;;;5016528;28;20184;-92
2021/10/14 04:43:19;;;;;;;14.30;7.97;;;12.30;95.30;;;;;;5016411;28;20173;-92
2021/10/14 04:45:45;;;;;;;15.83;9.03;;;12.30;95.40;;;;;;5016496;28;20181;-92
2021/10/14 04:48:10;;;;;;;11.90;8.80;;;12.40;95.40;;;;;;5016460;28;20608;-92
2021/10/14 04:50:36;;;;;;;16.30;8.93;;;12.30;95.40;;;;;;5016619;28;20176;-92
2021/10/14 04:53:02;;;;;;;17.70;10.43;;;12.40;95.40;;;;;;5016268;28;20522;-92
2021/10/14 04:55:28;;;;;;;20.20;10.67;;;12.50;95.50;;;;;;5016901;28;20641;-92
2021/10/14 04:57:54;;;;;;;19.57;10.57;;;12.50;95.50;;;;;;4999983;28;20236;-92
2021/10/14 05:00:20;;;;;;;16.77;9.33;;;12.50;95.50;;;;;;5017349;28;20184;-92
2021/10/14 05:02:46;;;;;;;14.43;10.10;;;12.50;95.50;;;;;;5016308;28;20621;-92
2021/10/14 05:05:11;;;;;;;14.53;9.13;;;12.60;95.50;;;;;;5016389;28;20173;-92
2021/10/14 05:07:37;;;;;;;13.10;8.83;;;12.50;95.50;;;;;;5016220;28;20196;-92
2021/10/14 05:10:03;;;;;;;10.77;7.97;;;12.50;95.50;;;;;;5016279;28;20234;-92
2021/10/14 05:12:29;;;;;;;13.57;8.33;;;12.50;95.50;;;;;;5016002;28;20188;-91
2021/10/14 05:14:55;;;;;;;13.10;8.23;;;12.60;95.60;;;;;;5016162;28;20268;-92
2021/10/14 05:17:20;;;;;;;14.77;8.30;;;12.60;95.50;;;;;;5015918;28;20236;-92
2021/10/14 05:19:46;;;;;;;15.43;9.30;;;12.60;95.50;;;;;;5016103;28;20560;-92
2021/10/14 05:22:11;;;;;;;18.83;10.40;;;12.60;95.50;;;;;;5015986;28;20656;-92
2021/10/14 05:24:37;;;;;;;23.70;11.77;;;12.60;95.50;;;;;;5015910;28;20267;-92
2021/10/14 05:27:03;;;;;;;22.57;11.47;;;12.60;95.60;;;;;;5015764;28;20277;-92
2021/10/14 05:29:29;;;;;;;22.57;12.10;;;12.50;95.50;;;;;;5033780;28;20165;-92
2021/10/14 05:31:54;;;;;;;26.10;13.43;;;12.50;95.50;;;;;;5014979;28;20267;-92
2021/10/14 05:34:20;;;;;;;21.73;12.70;;;12.60;95.50;;;;;;5015806;28;20264;-92
2021/10/14 05:36:46;;;;;;;22.70;12.03;;;12.60;95.40;;;;;;5015648;28;20239;-92
2021/10/14 05:39:11;;;;;;;21.50;11.90;;;12.50;95.40;;;;;;5015560;28;20184;-92
2021/10/14 05:41:37;;;;;;;26.50;13.20;;;12.50;95.40;;;;;;5015786;28;20222;-92
2021/10/14 05:44:03;;;;;;;24.33;11.80;;;12.50;95.40;;;;;;5015708;28;20177;-92
2021/10/14 05:46:28;;;;;;;24.20;14.43;;;12.40;95.40;;;;;;5015664;28;20181;-92
2021/10/14 05:48:54;;;;;;;26.73;13.57;;;12.50;95.30;;;;;;5015561;28;20384;-92
2021/10/14 05:51:19;;;;;;;24.63;13.67;;;12.50;95.30;;;;;;5015660;28;20691;-91
2021/10/14 05:53:45;;;;;;;27.30;13.57;;;12.40;95.30;;;;;;5015576;28;20187;-92
2021/10/14 05:56:11;;;;;;;21.70;12.43;;;12.40;95.30;;;;;;5015502;28;20257;-92
2021/10/14 05:58:36;;;;;;;21.20;11.27;;;12.50;95.20;;;;;;5033514;28;20197;-92
2021/10/14 06:01:02;;;;;;;23.07;11.97;;;12.40;95.20;;;;;;5015589;28;20180;-92
2021/10/14 06:03:28;;;;;;;17.23;10.40;;;12.40;95.10;;;;;;5015634;28;20185;-92
2021/10/14 06:05:53;;;;;;;20.80;10.57;;;12.50;95.10;;;;;;5015656;28;20176;-92
2021/10/14 06:08:19;;;;;;;21.23;11.17;;;12.50;95.10;;;;;;5015342;28;20200;-92
2021/10/14 06:10:45;;;;;;;20.57;11.03;;;12.50;95.00;;;;;;5015547;28;20177;-92
2021/10/14 06:13:10;;;;;;;19.30;11.57;;;12.40;95.00;;;;;;5015766;28;20209;-92
2021/10/14 06:15:36;;;;;;;24.23;10.47;;;12.40;95.00;;;;;;5015812;28;20177;-92
2021/10/14 06:18:02;;;;;;;19.47;10.20;;;12.40;95.00;;;;;;5015683;28;20219;-92
2021/10/14 06:20:27;;;;;;;18.00;9.87;;;12.40;94.90;;;;;;5015424;28;20267;-92
2021/10/14 06:22:53;;;;;;;18.90;9.17;;;12.40;94.90;;;;;;5015390;28;20176;-92
2021/10/14 06:25:18;;;;;;;14.10;8.93;;;12.40;94.90;;;;;;5015230;28;20173;-92
2021/10/14 06:27:44;;;;;;;16.23;8.63;;;12.40;94.80;;;;;;5015116;28;20299;-92
2021/10/14 06:30:10;;;;;;;20.27;9.77;;;12.40;94.80;;;;;;5015261;28;20176;-91
2021/10/14 06:32:36;;;;;;;18.60;8.67;;;12.40;94.80;;;;;;5015219;28;20199;-92
2021/10/14 06:35:01;;;;;;;16.33;8.70;;;12.40;94.80;;;;;;5015222;28;20185;-92
2021/10/14 06:37:27;;;;;;;20.43;8.57;;;12.40;94.70;;;;;;5014999;28;20756;-92
2021/10/14 06:39:53;;;;;;;16.13;8.10;;;12.40;94.60;;;;;;5015216;28;20180;-91
2021/10/14 06:42:18;;;;;;;12.00;6.17;;;12.40;94.60;;;;;;5015894;28;20637;-92
2021/10/14 06:44:44;;;;;;;15.90;7.47;;;12.50;94.50;;;;;;5018595;28;20569;-91
2021/10/14 06:47:10;;;;;;;14.17;6.80;;;12.40;94.50;;;;;;5018566;28;20201;-92
2021/10/14 06:49:36;;;;;;;12.83;6.70;;;12.40;94.40;;;;;;5018476;28;20187;-92
2021/10/14 06:52:01;;;;;;;13.43;7.47;;;12.40;94.40;;;;;;5018522;28;20183;-92
2021/10/14 06:54:27;;;;;;;18.23;7.87;;;12.40;94.40;;;;;;5018438;28;20180;-92
2021/10/14 06:56:53;;;;;;;18.17;6.63;;;12.40;94.40;;;;;;5018317;28;20628;-92
2021/10/14 06:59:18;;;;;;;16.63;7.87;;;12.40;94.40;;;;;;5018504;28;20657;-92
2021/10/14 07:01:44;;;;;;;18.17;7.73;;;12.50;94.40;;;;;;5018327;28;20632;-92
2021/10/14 07:04:10;;;;;;;18.23;7.90;;;12.40;94.30;;;;;;5018279;28;20183;-92
2021/10/14 07:06:35;;;;;;;18.37;7.47;;;12.40;94.30;;;;;;5018116;28;20176;-92
2021/10/14 07:09:01;;;;;;;14.33;6.97;;;12.50;94.30;;;;;;5018355;28;20176;-92
2021/10/14 07:11:31;;;;;;;23.03;8.30;;;12.40;94.20;;;;;;5018434;28;20180;-92
2021/10/14 07:13:57;;;;;;;19.07;7.87;;;12.40;94.10;;;;;;5018280;28;20165;-92
2021/10/14 07:16:24;;;;;;;20.20;8.20;;;12.40;94.10;;;;;;5018107;28;20559;-92
2021/10/14 07:18:50;;;;;;;19.30;9.60;;;12.40;94.20;;;;;;5018031;28;20193;-92
2021/10/14 07:21:15;;;;;;;14.87;7.97;;;12.40;94.10;;;;;;5019129;28;20247;-92
2021/10/14 07:23:41;;;;;;;22.30;9.53;;;12.40;94.00;;;;;;5018259;28;20231;-92
2021/10/14 07:26:07;;;;;;;17.00;9.60;;;12.40;94.00;;;;;;5018231;28;20215;-92
2021/10/14 07:28:32;;;;;;;17.27;9.70;;;12.50;94.00;;;;;;5017898;28;20569;-92
2021/10/14 07:30:58;;;;;;;19.57;8.97;;;12.50;94.10;;;;;;5017884;28;20645;-92
2021/10/14 07:33:24;;;;;;;20.13;10.80;;;12.50;94.10;;;;;;5018001;28;20180;-92
2021/10/14 07:35:50;;;;;;;14.03;9.33;;;12.50;94.10;;;;;;5018107;28;20625;-92
2021/10/14 07:38:15;;;;;;;15.53;8.40;;;12.60;94.10;;;;;;5017873;28;20204;-92
2021/10/14 07:40:43;;;;;;;17.67;8.90;;;12.60;94.10;;;;;;5018763;28;20684;-92
2021/10/14 07:43:11;;;;;;;25.60;9.93;;;12.70;94.10;;;;;;5018354;28;20200;-92
2021/10/14 07:45:38;;;;;;;30.53;9.27;;;12.70;94.10;;;;;;5035215;28;20215;-92
2021/10/14 07:48:04;;;;;;;17.50;9.07;;;12.80;94.00;;;;;;5017542;28;20224;-92
2021/10/14 07:50:30;;;;;;;22.87;10.20;;;12.80;94.00;;;;;;5017435;28;20668;-92
2021/10/14 07:52:56;;;;;;;18.70;9.77;;;12.80;94.10;;;;;;5017383;28;20271;-92
2021/10/14 07:55:22;;;;;;;20.87;8.90;;;12.80;94.10;;;;;;5016526;28;20181;-92
2021/10/14 07:57:47;;;;;;;21.07;9.70;;;12.80;94.00;;;;;;5017263;28;20640;-92
2021/10/14 08:00:13;;;;;;;18.97;10.33;;;12.80;93.90;;;;;;5017204;28;20268;-92
2021/10/14 08:02:39;;;;;;;19.40;9.73;;;12.80;93.90;;;;;;5017327;28;20271;-92
2021/10/14 08:05:05;;;;;;;21.97;9.17;;;12.80;93.80;;;;;;5017135;28;20263;-92
2021/10/14 08:07:32;;;;;;;22.90;9.13;;;12.90;93.80;;;;;;5017088;28;20217;-92
2021/10/14 08:09:57;;;;;;;11.63;7.37;;;12.90;93.60;;;;;;5017003;28;20177;-92
2021/10/14 08:12:23;;;;;;;17.67;8.73;;;12.80;93.30;;;;;;5017129;28;20275;-92
2021/10/14 08:14:49;;;;;;;20.13;8.80;;;12.90;93.40;;;;;;5017002;28;20659;-92
2021/10/14 08:17:15;;;;;;;21.87;9.07;;;13.00;93.50;;;;;;5016772;28;20213;-92
2021/10/14 08:19:41;;;;;;;16.03;7.57;;;13.00;93.30;;;;;;5017220;28;20204;-92
2021/10/14 08:22:06;;;;;;;19.30;9.83;;;13.00;93.30;;;;;;5016754;28;20633;-92
2021/10/14 08:24:35;;;;;;;16.63;8.63;;;13.00;93.20;;;;;;5017013;28;20238;-92
2021/10/14 08:27:02;;;;;;;19.70;9.20;;;13.00;93.00;;;;;;5076489;22;20220;-87
2021/10/14 08:29:28;;;;;;;18.37;8.70;;;13.00;92.90;;;;;;5037201;28;20263;-88
2021/10/14 08:31:53;;;;;;;19.70;9.03;;;13.00;93.10;;;;;;5037088;28;20203;-87
2021/10/14 08:34:19;;;;;;;17.33;8.23;;;13.00;92.80;;;;;;5053418;28;20199;-87
2021/10/14 08:36:44;;;;;;;11.37;7.00;;;13.00;92.90;;;;;;5054758;28;20265;-88
2021/10/14 08:39:10;;;;;;;16.33;8.20;;;12.90;92.50;;;;;;5036403;28;20567;-87
2021/10/14 08:41:36;;;;;;;9.73;7.33;;;12.90;92.50;;;;;;5036632;28;20179;-88
2021/10/14 08:44:02;;;;;;;15.20;6.73;;;12.80;92.40;;;;;;5036386;28;20176;-88
2021/10/14 08:46:29;;;;;;;16.17;7.63;;;12.90;92.40;;;;;;5054523;28;20172;-88
2021/10/14 08:48:54;;;;;;;12.73;6.47;;;12.90;92.50;;;;;;5036549;28;20246;-88
2021/10/14 08:51:21;;;;;;;14.77;7.27;;;12.90;92.20;;;;;;5036617;28;20636;-87
2021/10/14 08:53:47;;;;;;;9.80;6.13;;;12.90;92.30;;;;;;5036351;28;20195;-88
2021/10/14 08:56:13;;;;;;;15.17;6.73;;;12.90;92.00;;;;;;5036614;28;20629;-88
2021/10/14 08:58:38;;;;;;;12.20;6.53;;;12.90;91.90;;;;;;5054090;28;20210;-88
2021/10/14 09:01:14;;;;;;;10.00;5.93;;;13.00;92.10;;;;;;5036229;28;20176;-88
2021/10/14 09:03:47;;;;;;;11.63;5.83;;;12.90;91.60;;;;;;5035929;28;20168;-88
2021/10/14 09:06:14;;;;;;;12.03;5.80;;;13.00;92.00;;;;;;5053923;28;20210;-88
2021/10/14 09:08:49;;;;;;;11.80;5.37;;;13.00;91.70;;;;;;5035843;28;20250;-88
2021/10/14 09:11:26;;;;;;;6.67;4.53;;;13.10;91.60;;;;;;5035842;28;20174;-88
2021/10/14 09:13:56;;;;;;;10.63;5.40;;;13.20;91.70;;;;;;5035963;28;20644;-88
2021/10/14 09:16:38;;;;;;;5.33;4.50;;;13.20;91.90;;;;;;5053455;28;20188;-88
2021/10/14 09:19:14;;;;;;;10.97;4.13;;;13.20;91.80;;;;;;5035763;28;20196;-88
2021/10/14 09:21:43;;;;;;;10.27;4.40;;;13.20;91.50;;;;;;5035929;28;20168;-88
2021/10/14 09:24:24;;;;;;;6.70;3.70;;;13.20;91.80;;;;;;5053402;28;20168;-88
2021/10/14 09:26:51;;;;;;;7.47;3.50;;;13.10;91.90;;;;;;5035621;28;20697;-87
2021/10/14 09:29:19;;;;;;;7.57;3.83;;;13.10;92.00;;;;;;5035468;28;20557;-88
2021/10/14 09:31:57;;;;;;;5.77;3.50;;;13.20;92.10;;;;;;5035264;28;20209;-88
2021/10/14 09:34:29;;;;;;;4.93;3.37;;;13.20;92.20;;;;;;5035472;28;20512;-88
2021/10/14 09:37:00;;;;;;;5.27;3.27;;;13.20;92.40;;;;;;5035204;28;20183;-87
2021/10/14 09:39:26;;;;;;;6.80;3.10;;;13.10;92.50;;;;;;5035399;28;20643;-87
2021/10/14 09:41:52;;;;;;;6.37;3.63;;;13.10;92.90;;;;;;5053823;28;20195;-88
2021/10/14 09:44:19;;;;;;;5.53;4.00;;;13.20;93.00;;;;;;5035354;28;20226;-87
2021/10/14 09:46:55;;;;;;;7.60;4.00;;;13.30;92.90;;;;;;5035273;28;20676;-87
2021/10/14 09:49:27;;;;;;;7.73;4.50;;;13.40;92.50;;;;;;5053205;28;20663;-87
2021/10/14 09:51:53;;;;;;;5.30;4.07;;;13.50;92.40;;;;;;5053157;28;20222;-87
2021/10/14 09:54:19;;;;;;;5.10;3.67;;;13.50;91.60;;;;;;5052974;28;20182;-88
2021/10/14 09:56:45;;;;;;;5.00;3.70;;;13.70;92.10;;;;;;5035299;28;20570;-87
2021/10/14 09:59:10;;;;;;;5.17;4.67;;;13.70;91.60;;;;;;5053069;28;20192;-87
2021/10/14 10:01:41;;;;;;;5.07;4.63;;;13.60;91.60;;;;;;5053436;28;20237;-88
2021/10/14 10:04:07;;;;;;;7.13;4.40;;;13.70;91.70;;;;;;5035503;28;20688;-87
2021/10/14 10:06:36;;;;;;;5.17;4.10;;;13.80;91.80;;;;;;5053188;28;20178;-87
2021/10/14 10:09:14;;;;;;;4.67;3.93;;;13.70;91.10;;;;;;5053373;28;20231;-87
2021/10/14 10:12:01;;;;;;;4.77;4.23;;;13.70;91.20;;;;;;5035517;28;20659;-87
2021/10/14 10:14:27;;;;;;;4.00;3.67;;;13.70;91.10;;;;;;5034696;28;20266;-87
2021/10/14 10:16:59;;;;;;;4.93;4.00;;;13.60;90.90;;;;;;5052753;28;20199;-88
2021/10/14 10:19:45;;;;;;;5.20;3.87;;;13.50;90.90;;;;;;5039089;28;20268;-87
2021/10/14 10:22:32;;;;;;;4.33;3.93;;;13.40;90.90;;;;;;5039111;28;20160;-88
2021/10/14 10:24:57;;;;;;;8.37;4.23;;;13.40;91.20;;;;;;5056946;28;20549;-87
2021/10/14 10:27:33;;;;;;;4.13;3.60;;;13.60;91.60;;;;;;5038638;28;20204;-88
2021/10/14 10:29:59;;;;;;;4.67;3.60;;;13.60;91.30;;;;;;5056786;28;20202;-88
2021/10/14 10:32:25;;;;;;;3.43;3.20;;;13.60;91.30;;;;;;5038689;28;20222;-87
2021/10/14 10:35:02;;;;;;;3.53;2.77;;;13.60;91.00;;;;;;5038507;28;20266;-88
2021/10/14 10:37:38;;;;;;;2.97;2.73;;;13.60;90.80;;;;;;5056468;28;20199;-89
2021/10/14 10:40:21;;;;;;;5.20;3.07;;;13.60;90.90;;;;;;5038415;28;20168;-88
2021/10/14 10:43:22;;;;;;;3.93;3.07;;;13.70;91.40;;;;;;5056138;28;20163;-88
2021/10/14 10:45:52;;;;;;;6.67;2.77;;;13.80;91.00;;;;;;5038290;28;20172;-88
2021/10/14 10:48:43;;;;;;;4.03;3.50;;;13.80;90.20;;;;;;5038271;28;20612;-89
2021/10/14 10:51:28;;;;;;;11.23;3.23;;;13.80;90.10;;;;;;5030924;28;20177;-89
2021/10/14 10:53:54;;;;;;;8.60;3.20;;;13.80;89.30;;;;;;5038166;28;20168;-89
2021/10/14 10:56:32;;;;;;;6.27;3.07;;;13.80;89.40;;;;;;5038121;28;20802;-87
2021/10/14 10:58:58;;;;;;;3.83;2.70;;;13.80;89.40;;;;;;5038230;28;20223;-88
2021/10/14 11:01:25;;;;;;;6.07;3.50;;;13.80;88.90;;;;;;5038198;28;20171;-88
2021/10/14 11:03:59;;;;;;;6.37;2.97;;;13.80;89.00;;;;;;5038124;28;20179;-89
2021/10/14 11:06:26;;;;;;;7.40;3.70;;;13.80;89.30;;;;;;5056058;28;20298;-88
2021/10/14 11:08:53;;;;;;;6.20;3.73;;;13.80;88.60;;;;;;5037988;28;20206;-88
2021/10/14 11:11:21;;;;;;;5.27;3.67;;;13.80;88.90;;;;;;5042311;28;20180;-87
2021/10/14 11:13:50;;;;;;;6.03;3.47;;;13.80;88.30;;;;;;5046137;28;20187;-87
2021/10/14 11:16:18;;;;;;;4.20;3.53;;;13.80;88.70;;;;;;5064026;28;20196;-86
2021/10/14 11:18:46;;;;;;;6.80;3.77;;;13.80;88.30;;;;;;5045940;28;20680;-87
2021/10/14 11:21:15;;;;;;;5.27;4.10;;;13.80;88.50;;;;;;5064387;28;20175;-88
2021/10/14 11:23:43;;;;;;;5.90;4.30;;;13.80;88.50;;;;;;5046181;28;20172;-87
2021/10/14 11:26:39;;;;;;;5.50;3.50;;;13.90;89.00;;;;;;5063392;28;20168;-86
2021/10/14 11:29:12;;;;;;;7.97;4.70;;;13.90;87.50;;;;;;5036226;28;20216;-87
2021/10/14 11:31:40;;;;;;;6.87;5.30;;;14.00;88.80;;;;;;5068669;28;20168;-87
2021/10/14 11:34:21;;;;;;;7.40;4.97;;;14.10;88.60;;;;;;5049022;28;20171;-87
2021/10/14 11:37:01;;;;;;;6.70;4.80;;;14.20;88.20;;;;;;5047237;28;20266;-87
2021/10/14 11:39:42;;;;;;;13.23;4.83;;;14.10;88.10;;;;;;5047765;28;20168;-87
2021/10/14 11:42:12;;;;;;;10.23;5.00;;;14.20;87.90;;;;;;5049557;28;20179;-86
2021/10/14 11:44:49;;;;;;;11.00;5.60;;;14.20;88.10;;;;;;5049105;28;20199;-87
2021/10/14 11:47:18;;;;;;;9.87;5.60;;;14.40;88.10;;;;;;5066175;28;20191;-87
2021/10/14 11:49:44;;;;;;;7.83;4.90;;;14.50;87.60;;;;;;5066231;28;20241;-86
2021/10/14 11:52:14;;;;;;;9.50;5.53;;;14.40;87.70;;;;;;5048966;28;20175;-86
2021/10/14 11:54:42;;;;;;;9.27;5.00;;;14.30;87.50;;;;;;5048111;28;20172;-86
2021/10/14 11:57:08;;;;;;;8.67;4.80;;;14.10;86.60;;;;;;5046326;28;20730;-86
2021/10/14 11:59:34;;;;;;;10.00;6.07;;;14.10;87.40;;;;;;5064400;28;20176;-85
2021/10/14 12:02:22;;;;;;;10.53;6.87;;;14.20;87.80;;;;;;5062421;28;20168;-86
2021/10/14 12:04:53;;;;;;;9.63;5.20;;;14.00;88.00;;;;;;5044413;28;20176;-86
2021/10/14 12:07:21;;;;;;;9.30;5.97;;;14.00;87.70;;;;;;5044908;28;20191;-87
2021/10/14 12:09:48;;;;;;;8.53;6.07;;;14.00;88.00;;;;;;5043502;28;20202;-87
2021/10/14 12:12:21;;;;;;;8.20;6.73;;;14.00;87.80;;;;;;5044532;28;20214;-86
2021/10/14 12:14:57;;;;;;;13.97;7.20;;;14.00;88.40;;;;;;5044135;28;20671;-86
2021/10/14 12:17:24;;;;;;;12.30;6.63;;;14.00;88.20;;;;;;5043768;28;20219;-86
2021/10/14 12:19:52;;;;;;;11.43;7.33;;;13.90;87.60;;;;;;5042811;28;20168;-86
2021/10/14 12:22:22;;;;;;;9.47;7.30;;;14.00;88.00;;;;;;5041048;28;20721;-87
2021/10/14 12:25:04;;;;;;;13.30;6.53;;;14.00;87.40;;;;;;5059056;28;20203;-86
2021/10/14 12:27:50;;;;;;;12.87;7.60;;;13.90;87.80;;;;;;5057074;28;20204;-87
2021/10/14 12:30:39;;;;;;;11.60;7.40;;;13.90;87.80;;;;;;5038321;28;20184;-87
2021/10/14 12:33:11;;;;;;;16.10;8.20;;;13.90;87.50;;;;;;5037264;28;20667;-87
2021/10/14 12:36:01;;;;;;;19.03;8.67;;;13.90;87.90;;;;;;5037234;28;20702;-88
2021/10/14 12:38:41;;;;;;;13.43;8.10;;;13.80;88.20;;;;;;5037065;28;20211;-88